Time;durP1;ratioP1;P1;durP2;ratioP2;P2;SDS_P1;SDS_P2;PMS_P1;PMS_P2;Temp;Humidity;BMP_temperature;BMP_pressure;BME280_temperature;BME280_humidity;BME280_pressure;Samples;Min_cycle;Max_cycle;Signal;HPM_P1;HPM_P2
2021/12/15 00:01:43;;;;;;;72.95;31.02;;;10.00;99.90;;;;;;5008593;28;20486;-72
2021/12/15 00:04:10;;;;;;;80.72;31.60;;;10.00;99.90;;;;;;4970782;28;250401;-71
2021/12/15 00:06:37;;;;;;;68.28;30.98;;;10.00;99.90;;;;;;5006095;28;20053;-72
2021/12/15 00:09:09;;;;;;;74.25;31.92;;;10.00;99.90;;;;;;4991097;28;20541;-71
2021/12/15 00:11:37;;;;;;;72.63;31.27;;;10.00;99.90;;;;;;5007685;28;20057;-72
2021/12/15 00:14:10;;;;;;;66.93;30.92;;;10.00;99.90;;;;;;4993619;28;174636;-71
2021/12/15 00:16:38;;;;;;;75.28;32.40;;;10.00;99.90;;;;;;5005351;28;20045;-71
2021/12/15 00:19:05;;;;;;;70.18;32.78;;;10.00;99.90;;;;;;5009894;28;266677;-71
2021/12/15 00:21:32;;;;;;;67.40;29.52;;;10.00;99.90;;;;;;5023945;28;20058;-72
2021/12/15 00:23:58;;;;;;;71.88;32.67;;;10.00;99.90;;;;;;4977342;28;252725;-71
2021/12/15 00:26:25;;;;;;;67.00;32.03;;;10.00;99.90;;;;;;5008326;28;20061;-71
2021/12/15 00:28:52;;;;;;;74.50;32.45;;;10.00;99.90;;;;;;4986763;28;254445;-71
2021/12/15 00:31:19;;;;;;;74.43;33.60;;;10.00;99.90;;;;;;5022258;28;20053;-71
2021/12/15 00:33:46;;;;;;;65.68;30.02;;;10.00;99.90;;;;;;5000870;28;272596;-71
2021/12/15 00:36:13;;;;;;;74.22;31.33;;;10.00;99.90;;;;;;4991298;28;20054;-71
2021/12/15 00:38:40;;;;;;;71.18;31.63;;;10.00;99.90;;;;;;4991577;28;254019;-71
2021/12/15 00:41:07;;;;;;;69.43;31.10;;;10.00;99.90;;;;;;4988113;28;20057;-72
2021/12/15 00:43:34;;;;;;;70.38;32.72;;;10.00;99.90;;;;;;5002932;28;20050;-72
2021/12/15 00:46:01;;;;;;;66.88;33.05;;;10.00;99.90;;;;;;4982661;28;20171;-71
2021/12/15 00:48:28;;;;;;;69.88;32.00;;;10.00;99.90;;;;;;5018940;28;20517;-71
2021/12/15 00:50:55;;;;;;;66.20;32.67;;;10.00;99.90;;;;;;4991692;28;189731;-72
2021/12/15 00:53:21;;;;;;;61.80;31.42;;;10.00;99.90;;;;;;4999748;28;20459;-71
2021/12/15 00:55:48;;;;;;;67.03;32.70;;;10.00;99.90;;;;;;4991348;28;165783;-72
2021/12/15 00:58:14;;;;;;;77.85;33.03;;;10.00;99.90;;;;;;5020088;28;20061;-71
2021/12/15 01:00:45;;;;;;;68.68;31.92;;;10.00;99.90;;;;;;4991249;28;275568;-71
2021/12/15 01:03:12;;;;;;;70.80;31.98;;;10.00;99.90;;;;;;5002598;28;20053;-71
2021/12/15 01:05:46;;;;;;;70.95;32.05;;;10.00;99.90;;;;;;4974577;28;200052;-71
2021/12/15 01:08:17;;;;;;;73.65;31.40;;;10.00;99.90;;;;;;5016352;28;20045;-72
2021/12/15 01:11:00;;;;;;;68.30;31.55;;;10.00;99.90;;;;;;5010142;28;277068;-71
2021/12/15 01:22:06;;;;;;;76.18;33.03;;;10.10;99.90;;;;;;4986540;28;20056;-71
2021/12/15 01:24:33;;;;;;;73.82;32.92;;;10.00;99.90;;;;;;4968879;28;172145;-71
2021/12/15 01:26:59;;;;;;;70.05;32.08;;;10.00;99.90;;;;;;4987429;28;20065;-71
2021/12/15 01:29:25;;;;;;;78.53;32.40;;;10.10;99.90;;;;;;4974396;28;122702;-71
2021/12/15 01:31:51;;;;;;;68.30;30.73;;;10.00;99.90;;;;;;4986909;28;20420;-71
2021/12/15 01:34:18;;;;;;;70.72;32.33;;;10.10;99.90;;;;;;4973838;28;55806;-72
2021/12/15 01:36:44;;;;;;;73.80;33.47;;;10.10;99.90;;;;;;5003181;28;20057;-71
2021/12/15 01:39:11;;;;;;;72.85;33.20;;;10.10;99.90;;;;;;4983133;28;242671;-71
2021/12/15 01:41:38;;;;;;;74.40;33.63;;;10.10;99.90;;;;;;5002118;28;20065;-71
2021/12/15 01:46:57;;;;;;;64.65;28.58;;;10.10;99.90;;;;;;4997074;28;20060;-72
2021/12/15 01:49:37;;;;;;;69.03;30.75;;;10.10;99.90;;;;;;5018648;28;267585;-71
2021/12/15 01:52:14;;;;;;;73.05;32.42;;;10.10;99.90;;;;;;5017319;28;20041;-72
2021/12/15 01:54:43;;;;;;;71.75;32.65;;;10.10;99.90;;;;;;5019099;28;272944;-71
2021/12/15 01:57:11;;;;;;;71.00;30.55;;;10.20;99.90;;;;;;5034014;28;20425;-71
2021/12/15 01:59:37;;;;;;;74.20;32.03;;;10.10;99.90;;;;;;5010171;28;164919;-72
2021/12/15 02:02:04;;;;;;;62.85;30.20;;;10.10;99.90;;;;;;5020727;28;20422;-71
2021/12/15 02:04:31;;;;;;;68.65;33.28;;;10.10;99.90;;;;;;4988637;28;141367;-70
2021/12/15 02:06:57;;;;;;;73.93;33.90;;;10.20;99.90;;;;;;5011711;28;20041;-71
2021/12/15 02:09:45;;;;;;;71.45;33.78;;;10.20;99.90;;;;;;4997597;28;188255;-71
2021/12/15 02:12:11;;;;;;;73.07;32.20;;;10.20;99.90;;;;;;5013038;28;20053;-71
2021/12/15 02:14:37;;;;;;;73.03;33.45;;;10.20;99.90;;;;;;5006601;28;155116;-71
2021/12/15 02:17:03;;;;;;;82.22;34.83;;;10.20;99.90;;;;;;5034980;28;20049;-71
2021/12/15 02:19:30;;;;;;;86.15;34.33;;;10.20;99.90;;;;;;5001255;28;131299;-71
2021/12/15 02:21:58;;;;;;;80.22;34.53;;;10.20;99.90;;;;;;5016982;28;20478;-71
2021/12/15 02:24:25;;;;;;;84.43;36.08;;;10.20;99.90;;;;;;5011142;28;68381;-71
2021/12/15 02:26:57;;;;;;;85.18;34.70;;;10.20;99.90;;;;;;5020519;28;20044;-71
2021/12/15 02:29:24;;;;;;;78.68;35.30;;;10.20;99.90;;;;;;5014471;28;261853;-71
2021/12/15 02:32:15;;;;;;;84.03;34.30;;;10.20;99.90;;;;;;5021762;28;20063;-71
2021/12/15 02:37:23;;;;;;;84.85;35.72;;;10.20;99.90;;;;;;5016397;28;20053;-71
2021/12/15 02:39:56;;;;;;;79.93;34.10;;;10.20;99.90;;;;;;5007634;28;32917;-71
2021/12/15 02:42:26;;;;;;;87.07;36.22;;;10.20;99.90;;;;;;5020138;28;20056;-72
2021/12/15 02:44:54;;;;;;;81.32;34.25;;;10.20;99.90;;;;;;5006161;28;255778;-71
2021/12/15 02:47:24;;;;;;;82.00;37.00;;;10.20;99.90;;;;;;5028905;28;20049;-71
2021/12/15 02:49:52;;;;;;;85.32;35.55;;;10.20;99.90;;;;;;5008358;28;60910;-71
2021/12/15 02:52:19;;;;;;;79.50;35.85;;;10.20;99.90;;;;;;5021307;28;20049;-71
2021/12/15 02:54:46;;;;;;;78.63;36.38;;;10.20;99.90;;;;;;5002085;28;147545;-71
2021/12/15 02:57:13;;;;;;;76.38;35.17;;;10.20;99.90;;;;;;5013790;28;20053;-72
2021/12/15 02:59:56;;;;;;;77.80;34.90;;;10.20;99.90;;;;;;5011105;28;20063;-71
2021/12/15 03:07:49;;;;;;;83.97;35.47;;;10.20;99.90;;;;;;5025185;28;20040;-71
2021/12/15 03:15:49;;;;;;;82.35;34.47;;;10.20;99.90;;;;;;5001068;28;207115;-71
2021/12/15 03:18:22;;;;;;;87.78;34.28;;;10.20;99.90;;;;;;5026018;28;20422;-71
2021/12/15 03:20:54;;;;;;;91.22;36.03;;;10.20;99.90;;;;;;5007911;28;169715;-71
2021/12/15 03:23:28;;;;;;;90.80;35.72;;;10.20;99.90;;;;;;5042044;28;20061;-71
2021/12/15 03:25:56;;;;;;;87.95;35.47;;;10.10;99.90;;;;;;5011443;28;248797;-71
2021/12/15 03:39:06;;;;;;;86.25;33.40;;;10.10;99.90;;;;;;5002596;28;188836;-71
2021/12/15 03:41:32;;;;;;;83.10;33.03;;;10.10;99.90;;;;;;5030998;28;20057;-71
2021/12/15 03:43:58;;;;;;;92.07;37.28;;;10.10;99.90;;;;;;5019275;28;272646;-71
2021/12/15 03:46:25;;;;;;;98.85;37.58;;;10.10;99.90;;;;;;5043469;28;20068;-71
2021/12/15 03:48:51;;;;;;;94.72;35.15;;;10.10;99.90;;;;;;5005685;28;263907;-72
2021/12/15 03:51:17;;;;;;;88.88;38.03;;;10.10;99.90;;;;;;5007688;28;20053;-71
2021/12/15 03:53:44;;;;;;;91.63;38.08;;;10.10;99.90;;;;;;5021781;28;269704;-70
2021/12/15 03:56:13;;;;;;;99.03;35.85;;;10.10;99.90;;;;;;5045396;28;20048;-71
2021/12/15 03:58:39;;;;;;;91.10;37.15;;;10.10;99.90;;;;;;5023414;28;252572;-70
2021/12/15 04:01:15;;;;;;;94.10;38.53;;;10.10;99.90;;;;;;5011576;28;20048;-71
2021/12/15 04:03:45;;;;;;;97.70;38.95;;;10.20;99.90;;;;;;5008669;28;273773;-70
2021/12/15 04:06:19;;;;;;;90.75;36.38;;;10.10;99.90;;;;;;5026117;28;20045;-72
2021/12/15 04:08:45;;;;;;;84.90;36.08;;;10.10;99.90;;;;;;4984648;28;260644;-70
2021/12/15 04:11:14;;;;;;;90.30;38.85;;;10.10;99.90;;;;;;5025544;28;20558;-71
2021/12/15 04:13:45;;;;;;;92.25;39.78;;;10.10;99.90;;;;;;5021963;28;264133;-70
2021/12/15 04:16:26;;;;;;;94.15;38.88;;;10.10;99.90;;;;;;5012167;28;20064;-71
2021/12/15 04:18:52;;;;;;;99.78;38.67;;;10.10;99.90;;;;;;5002995;28;259283;-71
2021/12/15 04:21:19;;;;;;;100.72;40.65;;;10.10;99.90;;;;;;5023584;28;21566;-70
2021/12/15 04:23:53;;;;;;;91.32;38.40;;;10.10;99.90;;;;;;5001161;28;265136;-71
2021/12/15 04:26:20;;;;;;;96.93;38.65;;;10.10;99.90;;;;;;5026977;28;20048;-71
2021/12/15 04:28:47;;;;;;;90.28;39.58;;;10.10;99.90;;;;;;4986060;28;274397;-71
2021/12/15 04:31:20;;;;;;;91.88;39.63;;;10.10;99.90;;;;;;5015460;28;20045;-71
2021/12/15 04:33:57;;;;;;;85.57;39.07;;;10.10;99.90;;;;;;5004221;28;258998;-71
2021/12/15 04:36:26;;;;;;;90.75;39.55;;;10.10;99.90;;;;;;5022939;28;20537;-71
2021/12/15 04:38:54;;;;;;;88.00;37.45;;;10.10;99.90;;;;;;5021067;28;252359;-74
2021/12/15 04:41:21;;;;;;;94.80;41.47;;;10.10;99.90;;;;;;5023523;28;20081;-71
2021/12/15 04:43:56;;;;;;;90.13;39.45;;;10.00;99.90;;;;;;5003479;28;269481;-71
2021/12/15 04:46:35;;;;;;;90.95;40.13;;;10.10;99.90;;;;;;5026477;28;20062;-71
2021/12/15 04:49:05;;;;;;;86.97;37.90;;;10.10;99.90;;;;;;5023608;28;254900;-71
2021/12/15 04:51:31;;;;;;;93.30;39.63;;;10.00;99.90;;;;;;5040219;28;20057;-70
2021/12/15 04:53:58;;;;;;;87.28;40.17;;;10.00;99.90;;;;;;4999317;28;280006;-71
2021/12/15 04:56:25;;;;;;;88.53;40.42;;;10.10;99.90;;;;;;5035707;28;20112;-71
2021/12/15 04:58:54;;;;;;;90.57;40.28;;;10.00;99.90;;;;;;5002686;28;259170;-71
2021/12/15 05:01:24;;;;;;;87.53;39.50;;;10.10;99.90;;;;;;5014566;28;20060;-71
2021/12/15 05:03:50;;;;;;;91.75;39.40;;;10.00;99.90;;;;;;5011826;28;253835;-71
2021/12/15 05:06:16;;;;;;;85.72;38.15;;;10.00;99.90;;;;;;5033008;28;20459;-71
2021/12/15 05:08:43;;;;;;;85.03;39.97;;;10.00;99.90;;;;;;4987795;28;272438;-71
2021/12/15 05:11:11;;;;;;;90.03;39.75;;;10.10;99.90;;;;;;5037689;28;20055;-71
2021/12/15 05:13:38;;;;;;;89.47;39.95;;;10.00;99.90;;;;;;5017832;28;258394;-71
2021/12/15 05:16:06;;;;;;;83.57;38.40;;;10.00;99.90;;;;;;5046244;28;20044;-72
2021/12/15 05:18:33;;;;;;;85.85;39.67;;;10.00;99.90;;;;;;5019248;28;20061;-71
2021/12/15 05:21:00;;;;;;;95.05;41.15;;;10.00;99.90;;;;;;5018488;28;259593;-71
2021/12/15 05:23:30;;;;;;;91.55;40.97;;;10.00;99.90;;;;;;5024770;28;20045;-71
2021/12/15 05:25:58;;;;;;;78.90;37.40;;;10.00;99.90;;;;;;5008571;28;187742;-71
2021/12/15 05:28:25;;;;;;;90.55;40.58;;;10.00;99.90;;;;;;5046319;28;20398;-71
2021/12/15 05:30:53;;;;;;;98.47;42.13;;;10.00;99.90;;;;;;5007342;28;123577;-71
2021/12/15 05:33:19;;;;;;;92.43;40.67;;;10.00;99.90;;;;;;5042672;28;20424;-71
2021/12/15 05:35:45;;;;;;;92.80;42.13;;;10.00;99.90;;;;;;5029397;28;161199;-71
2021/12/15 05:38:12;;;;;;;94.20;42.22;;;10.00;99.90;;;;;;5021538;28;20057;-71
2021/12/15 05:40:38;;;;;;;91.03;41.17;;;10.00;99.90;;;;;;4996349;28;255157;-71
2021/12/15 05:43:06;;;;;;;95.03;42.22;;;10.00;99.90;;;;;;5039998;28;20053;-70
2021/12/15 05:45:36;;;;;;;96.65;42.00;;;10.00;99.90;;;;;;5016304;28;101348;-71
2021/12/15 05:48:05;;;;;;;85.85;40.60;;;10.00;99.90;;;;;;5038748;28;20057;-72
2021/12/15 05:50:31;;;;;;;95.85;42.25;;;10.00;99.90;;;;;;5011160;28;123185;-71
2021/12/15 05:53:00;;;;;;;97.72;44.35;;;10.00;99.90;;;;;;5019554;28;20063;-71
2021/12/15 05:55:26;;;;;;;97.30;42.97;;;10.00;99.90;;;;;;4995252;28;229393;-71
2021/12/15 05:57:52;;;;;;;89.07;39.30;;;10.00;99.90;;;;;;5019015;28;20060;-71
2021/12/15 06:00:25;;;;;;;93.07;43.22;;;10.00;99.90;;;;;;5004708;28;187143;-72
2021/12/15 06:02:53;;;;;;;94.80;43.67;;;10.00;99.90;;;;;;5018157;28;20060;-71
2021/12/15 06:05:19;;;;;;;89.85;42.53;;;10.00;99.90;;;;;;5000055;28;157893;-71
2021/12/15 06:07:47;;;;;;;89.95;41.13;;;10.00;99.90;;;;;;5021420;28;20083;-71
2021/12/15 06:10:18;;;;;;;86.97;41.33;;;10.00;99.90;;;;;;4994292;28;134305;-71
2021/12/15 06:12:48;;;;;;;84.80;41.75;;;10.00;99.90;;;;;;5044464;28;20048;-72
2021/12/15 06:15:20;;;;;;;84.78;40.08;;;10.00;99.90;;;;;;5027948;28;260178;-71
2021/12/15 06:17:49;;;;;;;87.40;41.72;;;10.00;99.90;;;;;;5029171;28;20076;-71
2021/12/15 06:20:15;;;;;;;87.68;42.00;;;10.00;99.90;;;;;;5021400;28;293292;-71
2021/12/15 06:22:44;;;;;;;86.82;40.58;;;10.00;99.90;;;;;;5023267;28;20052;-71
2021/12/15 06:25:12;;;;;;;87.13;43.95;;;10.00;99.90;;;;;;5021080;28;79268;-71
2021/12/15 06:27:40;;;;;;;84.38;38.90;;;10.00;99.90;;;;;;5030294;28;20053;-72
2021/12/15 06:30:08;;;;;;;90.68;41.65;;;10.00;99.90;;;;;;5014152;28;315319;-72
2021/12/15 06:32:35;;;;;;;82.25;41.40;;;10.00;99.90;;;;;;5037506;28;20149;-72
2021/12/15 06:35:02;;;;;;;89.32;40.67;;;10.00;99.90;;;;;;5025003;28;265095;-71
2021/12/15 06:37:28;;;;;;;89.20;41.67;;;10.00;99.90;;;;;;5028123;28;20498;-71
2021/12/15 06:39:54;;;;;;;89.45;43.10;;;10.00;99.90;;;;;;5008209;28;127863;-71
2021/12/15 06:42:21;;;;;;;87.00;41.03;;;10.00;99.90;;;;;;5041677;28;20113;-72
2021/12/15 06:44:47;;;;;;;89.38;41.70;;;10.00;99.90;;;;;;5005788;28;233967;-72
2021/12/15 06:47:34;;;;;;;81.75;40.95;;;10.00;99.90;;;;;;5020183;28;20053;-72
2021/12/15 06:58:17;;;;;;;88.07;41.78;;;10.00;99.90;;;;;;5023321;28;20178;-72
2021/12/15 07:00:47;;;;;;;85.72;41.22;;;10.00;99.90;;;;;;5012964;28;252808;-73
2021/12/15 07:03:15;;;;;;;86.60;40.85;;;10.00;99.90;;;;;;5039701;28;20487;-73
2021/12/15 07:05:41;;;;;;;91.32;40.97;;;10.00;99.90;;;;;;4995037;28;131478;-73
2021/12/15 07:08:09;;;;;;;80.00;41.28;;;10.00;99.90;;;;;;5020739;28;20512;-73
2021/12/15 07:10:40;;;;;;;86.50;41.75;;;10.00;99.90;;;;;;5026189;28;23377;-73
2021/12/15 07:13:06;;;;;;;80.40;40.63;;;10.00;99.90;;;;;;5027573;28;20046;-73
2021/12/15 07:15:34;;;;;;;76.13;38.30;;;10.00;99.90;;;;;;4993298;28;178019;-73
2021/12/15 07:18:04;;;;;;;83.03;40.38;;;10.00;99.90;;;;;;5032611;28;20052;-73
2021/12/15 07:23:06;;;;;;;78.18;36.45;;;10.00;99.90;;;;;;5028537;28;20041;-73
2021/12/15 07:25:33;;;;;;;86.93;38.85;;;10.00;99.90;;;;;;4996505;28;224963;-73
2021/12/15 07:28:00;;;;;;;78.05;38.40;;;10.00;99.90;;;;;;5021878;28;20055;-73
2021/12/15 07:30:26;;;;;;;74.60;36.70;;;10.00;99.90;;;;;;5020002;28;20108;-73
2021/12/15 07:32:53;;;;;;;77.88;36.28;;;10.00;99.90;;;;;;5032035;28;20056;-73
2021/12/15 07:35:20;;;;;;;78.50;37.83;;;10.00;99.90;;;;;;5019398;28;20049;-73
2021/12/15 07:37:47;;;;;;;78.97;38.13;;;10.00;99.90;;;;;;5030888;28;20083;-73
2021/12/15 07:40:21;;;;;;;75.53;36.15;;;10.10;99.90;;;;;;5007669;28;188597;-73
2021/12/15 07:43:03;;;;;;;62.10;34.10;;;10.10;99.90;;;;;;5029718;28;20056;-73
2021/12/15 07:45:31;;;;;;;70.50;33.10;;;10.10;99.90;;;;;;4981742;28;263121;-72
2021/12/15 07:48:01;;;;;;;65.95;34.50;;;10.10;99.90;;;;;;5029844;28;20071;-72
2021/12/15 07:50:29;;;;;;;67.07;32.75;;;10.10;99.90;;;;;;5006808;28;117950;-72
2021/12/15 07:52:55;;;;;;;61.17;29.35;;;10.10;99.90;;;;;;5037520;28;20056;-72
2021/12/15 07:55:22;;;;;;;64.90;32.95;;;10.10;99.90;;;;;;5011522;28;220626;-73
2021/12/15 07:57:50;;;;;;;63.80;30.80;;;10.10;99.90;;;;;;5041851;28;20053;-72
2021/12/15 08:00:17;;;;;;;63.08;32.00;;;10.10;99.90;;;;;;5015446;28;120606;-72
2021/12/15 08:02:43;;;;;;;64.28;31.42;;;10.10;99.90;;;;;;5027985;28;20053;-72
2021/12/15 08:05:09;;;;;;;56.40;31.30;;;10.10;99.90;;;;;;4985365;28;196477;-72
2021/12/15 08:07:35;;;;;;;59.15;30.52;;;10.10;99.90;;;;;;5028848;28;20418;-72
2021/12/15 08:10:06;;;;;;;55.65;30.45;;;10.10;99.90;;;;;;5018884;28;248811;-71
2021/12/15 08:12:32;;;;;;;62.38;33.00;;;10.10;99.90;;;;;;5024219;28;20454;-72
2021/12/15 08:14:58;;;;;;;61.88;33.05;;;10.10;99.90;;;;;;5014395;28;115166;-72
2021/12/15 08:17:24;;;;;;;58.35;30.00;;;10.20;99.90;;;;;;5023603;28;20076;-72
2021/12/15 08:19:51;;;;;;;66.55;32.38;;;10.10;99.90;;;;;;4998639;28;145335;-72
2021/12/15 08:22:17;;;;;;;59.88;31.15;;;10.20;99.90;;;;;;5026760;28;20056;-72
2021/12/15 08:24:43;;;;;;;64.13;30.58;;;10.20;99.90;;;;;;4995466;28;63544;-72
2021/12/15 08:27:09;;;;;;;58.97;31.30;;;10.20;99.90;;;;;;5030172;28;20038;-72
2021/12/15 08:29:36;;;;;;;62.13;30.77;;;10.20;99.90;;;;;;5004070;28;186079;-72
2021/12/15 08:32:03;;;;;;;63.42;29.83;;;10.20;99.90;;;;;;5033522;28;20045;-72
2021/12/15 08:34:29;;;;;;;66.32;31.90;;;10.20;99.90;;;;;;5020121;28;55186;-72
2021/12/15 08:36:55;;;;;;;59.90;30.58;;;10.20;99.90;;;;;;5049696;28;20275;-72
2021/12/15 08:39:22;;;;;;;59.42;30.65;;;10.20;99.90;;;;;;4995945;28;151434;-72
2021/12/15 08:41:48;;;;;;;63.28;31.70;;;10.20;99.90;;;;;;5026342;28;20040;-72
2021/12/15 08:44:15;;;;;;;57.50;31.33;;;10.20;99.90;;;;;;5010515;28;176623;-73
2021/12/15 08:46:44;;;;;;;58.30;30.70;;;10.20;99.90;;;;;;5046115;28;20079;-72
2021/12/15 08:49:16;;;;;;;59.08;30.70;;;10.20;99.90;;;;;;5004768;28;20049;-72
2021/12/15 08:51:45;;;;;;;62.97;31.80;;;10.20;99.90;;;;;;5026124;28;20679;-72
2021/12/15 08:54:15;;;;;;;65.63;30.70;;;10.20;99.90;;;;;;4991093;28;81413;-72
2021/12/15 08:56:44;;;;;;;65.47;31.35;;;10.20;99.90;;;;;;5014180;28;20477;-72
2021/12/15 08:59:11;;;;;;;65.28;30.95;;;10.20;99.90;;;;;;5003652;28;232635;-72
2021/12/15 09:01:39;;;;;;;58.97;30.67;;;10.20;99.90;;;;;;5024825;28;20506;-72
2021/12/15 09:04:05;;;;;;;62.67;31.75;;;10.20;99.90;;;;;;4998364;28;175468;-73
2021/12/15 09:06:33;;;;;;;62.05;30.55;;;10.20;99.90;;;;;;5024918;28;20056;-72
2021/12/15 09:08:59;;;;;;;57.75;29.27;;;10.30;99.90;;;;;;5006417;28;262412;-73
2021/12/15 09:11:27;;;;;;;63.35;30.40;;;10.30;99.90;;;;;;5029113;28;20076;-73
2021/12/15 09:13:55;;;;;;;61.55;31.73;;;10.30;99.90;;;;;;5008092;28;258769;-73
2021/12/15 09:16:22;;;;;;;59.25;29.35;;;10.30;99.90;;;;;;5029003;28;20037;-73
2021/12/15 09:18:55;;;;;;;55.42;29.40;;;10.30;99.90;;;;;;5002996;28;269438;-73
2021/12/15 09:21:23;;;;;;;59.13;30.75;;;10.30;99.90;;;;;;5012772;28;20056;-73
2021/12/15 09:23:50;;;;;;;56.88;28.08;;;10.30;99.90;;;;;;5006747;28;255540;-73
2021/12/15 09:26:17;;;;;;;56.15;28.95;;;10.30;99.90;;;;;;5024223;28;20061;-73
2021/12/15 09:28:43;;;;;;;54.77;28.23;;;10.30;99.90;;;;;;5006258;28;261802;-73
2021/12/15 09:31:10;;;;;;;53.97;28.45;;;10.40;99.90;;;;;;5000894;28;20057;-73
2021/12/15 09:33:41;;;;;;;49.85;27.25;;;10.40;99.90;;;;;;5034141;28;20053;-73
2021/12/15 09:36:09;;;;;;;53.83;27.50;;;10.40;99.90;;;;;;5018399;28;20595;-73
2021/12/15 09:38:36;;;;;;;53.88;27.15;;;10.40;99.90;;;;;;5025246;28;20525;-73
2021/12/15 09:41:05;;;;;;;47.08;26.10;;;10.40;99.90;;;;;;5002119;28;20052;-73
2021/12/15 09:43:32;;;;;;;51.97;25.50;;;10.40;99.90;;;;;;5030200;28;20414;-73
2021/12/15 09:46:09;;;;;;;46.67;22.80;;;10.40;99.90;;;;;;5011723;28;169284;-73
2021/12/15 10:18:56;;;;;;;41.42;19.58;;;10.60;99.90;;;;;;4931841;28;132797;-72
2021/12/15 10:21:29;;;;;;;37.70;17.30;;;10.70;99.90;;;;;;4943736;28;20062;-72
2021/12/15 10:23:56;;;;;;;31.55;15.65;;;10.70;99.90;;;;;;4933827;28;148257;-72
2021/12/15 10:26:24;;;;;;;28.90;16.30;;;10.70;99.90;;;;;;4945550;28;20055;-73
2021/12/15 10:28:52;;;;;;;35.35;16.83;;;10.70;99.90;;;;;;4951226;28;36436;-72
2021/12/15 10:31:23;;;;;;;31.27;16.25;;;10.70;99.90;;;;;;4945536;28;20055;-72
2021/12/15 10:33:53;;;;;;;28.30;15.50;;;10.80;99.90;;;;;;4956970;28;202020;-72
2021/12/15 10:36:26;;;;;;;29.02;15.13;;;10.80;99.90;;;;;;4953856;28;20051;-72
2021/12/15 10:38:54;;;;;;;33.42;15.85;;;10.80;99.90;;;;;;4961566;28;20045;-72
2021/12/15 10:41:36;;;;;;;32.53;16.92;;;10.90;99.90;;;;;;4988603;28;20048;-73
2021/12/15 10:44:21;;;;;;;34.72;16.20;;;10.90;99.90;;;;;;5023789;28;270416;-73
2021/12/15 10:46:56;;;;;;;32.22;16.42;;;10.90;99.90;;;;;;5023422;28;20052;-73
2021/12/15 10:49:31;;;;;;;28.77;15.68;;;10.90;99.90;;;;;;5021593;28;215150;-73
2021/12/15 10:52:01;;;;;;;28.70;14.20;;;11.00;99.90;;;;;;5028964;28;20521;-73
2021/12/15 10:54:34;;;;;;;29.33;15.05;;;10.90;99.90;;;;;;5007082;28;46540;-73
2021/12/15 10:57:08;;;;;;;33.83;15.05;;;10.90;99.90;;;;;;5020165;28;20059;-73
2021/12/15 10:59:49;;;;;;;30.70;14.85;;;11.00;99.90;;;;;;5020200;28;259808;-74
2021/12/15 11:02:21;;;;;;;27.95;14.43;;;11.00;99.90;;;;;;5021475;28;20052;-73
2021/12/15 11:04:57;;;;;;;24.75;13.20;;;11.10;99.90;;;;;;4989865;28;200617;-73
2021/12/15 11:07:33;;;;;;;26.63;13.07;;;11.10;99.90;;;;;;5024471;28;20076;-73
2021/12/15 11:10:10;;;;;;;24.88;12.38;;;11.10;99.90;;;;;;5016662;28;20053;-73
2021/12/15 11:12:58;;;;;;;26.55;12.27;;;11.00;99.90;;;;;;5027002;28;20149;-73
2021/12/15 11:15:41;;;;;;;24.67;12.80;;;11.00;99.90;;;;;;5026509;28;27978;-73
2021/12/15 11:18:14;;;;;;;23.92;12.07;;;11.00;99.90;;;;;;5020062;28;20049;-73
2021/12/15 11:20:44;;;;;;;25.27;10.75;;;11.10;99.90;;;;;;5021023;28;67477;-72
2021/12/15 11:23:22;;;;;;;23.98;10.52;;;11.00;99.90;;;;;;5043316;28;20041;-72
2021/12/15 11:25:52;;;;;;;21.10;9.82;;;11.00;99.90;;;;;;5011841;28;224655;-72
2021/12/15 11:28:26;;;;;;;19.80;9.40;;;11.00;99.90;;;;;;5035723;28;20049;-72
2021/12/15 11:31:07;;;;;;;21.40;9.63;;;11.00;99.90;;;;;;5011847;28;234863;-72
2021/12/15 11:33:48;;;;;;;21.50;9.27;;;11.00;99.90;;;;;;5039336;28;20061;-73
2021/12/15 11:36:16;;;;;;;21.55;8.38;;;11.00;99.90;;;;;;5020893;28;20506;-72
2021/12/15 11:38:50;;;;;;;18.45;8.75;;;11.00;99.90;;;;;;5016307;28;258538;-73
2021/12/15 11:41:38;;;;;;;23.77;8.70;;;11.00;99.90;;;;;;5044113;28;20056;-72
2021/12/15 11:44:08;;;;;;;22.73;8.55;;;11.00;99.90;;;;;;5029250;28;274396;-72
2021/12/15 11:46:34;;;;;;;19.08;9.02;;;11.00;99.90;;;;;;5044596;28;20063;-72
2021/12/15 11:49:03;;;;;;;18.88;8.95;;;11.00;99.90;;;;;;5032016;28;248334;-72
2021/12/15 11:51:52;;;;;;;21.75;8.70;;;11.00;99.90;;;;;;5042216;28;20041;-73
2021/12/15 11:54:32;;;;;;;20.33;8.13;;;11.10;99.90;;;;;;5009402;28;94989;-72
2021/12/15 11:57:06;;;;;;;20.00;7.80;;;11.00;99.90;;;;;;5047646;28;20055;-72
2021/12/15 11:59:39;;;;;;;17.75;7.28;;;11.10;99.90;;;;;;5013112;28;162592;-72
2021/12/15 12:02:05;;;;;;;18.38;8.85;;;11.10;99.90;;;;;;5027086;28;20533;-72
2021/12/15 12:04:31;;;;;;;20.17;8.77;;;11.10;99.90;;;;;;4997921;28;119258;-72
2021/12/15 12:07:30;;;;;;;18.60;9.13;;;11.10;99.90;;;;;;5014757;28;20068;-73
2021/12/15 12:09:59;;;;;;;19.38;9.45;;;11.20;99.90;;;;;;4996286;28;179004;-73
2021/12/15 12:12:31;;;;;;;22.92;9.85;;;11.10;99.90;;;;;;5021264;28;20059;-73
2021/12/15 12:14:58;;;;;;;20.33;10.10;;;11.10;99.90;;;;;;5013998;28;196131;-73
2021/12/15 12:17:35;;;;;;;21.92;10.18;;;11.10;99.90;;;;;;5028976;28;20509;-73
2021/12/15 12:20:18;;;;;;;18.92;10.30;;;11.10;99.90;;;;;;5008313;28;153056;-73
2021/12/15 12:22:47;;;;;;;21.25;10.35;;;11.10;99.90;;;;;;5045559;28;20401;-73
2021/12/15 12:25:17;;;;;;;25.52;10.65;;;11.10;99.90;;;;;;5024792;28;259767;-73
2021/12/15 12:27:45;;;;;;;22.13;10.77;;;11.10;99.90;;;;;;5025319;28;20140;-72
2021/12/15 12:30:18;;;;;;;25.02;10.30;;;11.20;99.90;;;;;;5025288;28;264519;-73
2021/12/15 12:32:45;;;;;;;20.50;9.95;;;11.10;99.90;;;;;;5026602;28;20053;-73
2021/12/15 12:35:15;;;;;;;20.42;9.88;;;11.10;99.90;;;;;;5018724;28;273956;-74
2021/12/15 12:37:41;;;;;;;22.83;10.05;;;11.10;99.90;;;;;;5033411;28;20421;-73
2021/12/15 12:40:23;;;;;;;20.55;9.40;;;11.10;99.90;;;;;;5020830;28;273604;-73
2021/12/15 12:42:50;;;;;;;20.48;7.80;;;11.10;99.90;;;;;;5035522;28;20057;-73
2021/12/15 12:45:16;;;;;;;19.75;7.47;;;11.00;99.90;;;;;;5024385;28;265554;-73
2021/12/15 12:48:01;;;;;;;17.30;7.53;;;11.00;99.90;;;;;;5026875;28;20052;-73
2021/12/15 12:51:04;;;;;;;16.00;6.70;;;11.00;99.90;;;;;;5023329;28;263233;-73
2021/12/15 12:59:45;;;;;;;16.63;5.00;;;11.00;99.90;;;;;;4978532;28;226661;-73
2021/12/15 13:02:39;;;;;;;16.05;5.57;;;11.10;99.90;;;;;;4995271;28;20066;-73
2021/12/15 13:05:24;;;;;;;15.60;5.53;;;11.10;99.90;;;;;;4970288;28;197852;-73
2021/12/15 13:07:54;;;;;;;13.95;4.90;;;11.20;99.90;;;;;;4981981;28;20058;-73
2021/12/15 13:10:41;;;;;;;15.35;4.97;;;11.20;99.90;;;;;;4990021;28;62150;-73
2021/12/15 13:13:12;;;;;;;14.45;5.05;;;11.50;99.90;;;;;;4994246;28;20077;-73
2021/12/15 13:15:39;;;;;;;13.35;4.57;;;12.60;99.90;;;;;;4987807;28;181953;-73
2021/12/15 13:18:11;;;;;;;16.00;4.70;;;13.40;99.90;;;;;;4995601;28;20049;-73
2021/12/15 13:20:38;;;;;;;13.90;4.28;;;13.50;99.90;;;;;;4991147;28;152935;-74
2021/12/15 13:28:49;;;;;;;15.48;4.10;;;11.80;99.90;;;;;;4997309;28;20050;-73
2021/12/15 13:31:27;;;;;;;12.13;3.42;;;11.50;99.90;;;;;;4963494;28;20072;-73
2021/12/15 13:33:59;;;;;;;15.63;3.67;;;11.40;99.90;;;;;;5012320;28;254106;-73
2021/12/15 13:36:29;;;;;;;11.70;3.55;;;11.30;99.90;;;;;;5043069;28;20052;-73
2021/12/15 13:38:57;;;;;;;11.63;3.70;;;11.30;99.90;;;;;;5003421;28;255308;-73
2021/12/15 13:44:17;;;;;;;12.77;3.53;;;11.40;99.90;;;;;;5003034;28;270315;-73
2021/12/15 13:46:45;;;;;;;13.00;3.88;;;11.10;99.90;;;;;;5012861;28;20067;-72
2021/12/15 13:49:26;;;;;;;15.63;4.00;;;10.90;99.90;;;;;;5003677;28;229730;-73
2021/12/15 13:52:30;;;;;;;14.55;3.90;;;10.80;99.90;;;;;;5026355;28;20049;-73
2021/12/15 13:55:02;;;;;;;13.05;3.80;;;10.80;99.90;;;;;;4942731;28;245212;-72
2021/12/15 13:57:48;;;;;;;15.40;3.95;;;10.70;99.90;;;;;;4959780;28;20070;-73
2021/12/15 14:00:14;;;;;;;17.55;4.22;;;10.70;99.90;;;;;;4928568;28;189931;-73
2021/12/15 14:02:53;;;;;;;13.40;3.65;;;10.60;99.90;;;;;;4947307;28;20436;-72
2021/12/15 14:05:25;;;;;;;14.15;3.60;;;10.60;99.90;;;;;;4934242;28;239936;-73
2021/12/15 14:07:53;;;;;;;16.63;4.15;;;10.50;99.90;;;;;;4959863;28;20753;-72
2021/12/15 14:10:20;;;;;;;17.08;4.60;;;10.50;99.90;;;;;;4949892;28;95001;-72
2021/12/15 14:12:49;;;;;;;13.18;3.70;;;10.50;99.90;;;;;;4966543;28;20064;-73